Private Wetterstation Sandau
Wetterdaten: Donnerstag, 14.06.2012
Datum Zeit Temp. A. Feuchte A. Luftdruck Regen Wind Richtung Richtung Taupunkt Windchill
14.06.2012 00:01 13,5 C 66 % 1017,0 hPa 0,0 l/m 1,4 km/h (1 Bft) NW 315 7,3 C 13,5 C
14.06.2012 00:06 13,6 C 67 % 1016,9 hPa 0,0 l/m 0,0 km/h (0 Bft) NW 315 7,6 C 13,6 C
14.06.2012 00:11 13,6 C 67 % 1017,1 hPa 0,0 l/m 1,1 km/h (1 Bft) NW 315 7,6 C 13,6 C
14.06.2012 00:16 13,6 C 67 % 1017,1 hPa 0,0 l/m 0,0 km/h (0 Bft) NW 315 7,6 C 13,6 C
14.06.2012 00:21 13,5 C 67 % 1017,2 hPa 0,0 l/m 0,0 km/h (0 Bft) NW 315 7,5 C 13,5 C
14.06.2012 00:26 13,4 C 67 % 1017,3 hPa 0,0 l/m 0,0 km/h (0 Bft) NW 315 7,4 C 13,4 C
14.06.2012 00:31 13,3 C 67 % 1017,3 hPa 0,0 l/m 2,2 km/h (1 Bft) NW 315 7,3 C 13,3 C
14.06.2012 00:36 13,2 C 67 % 1017,4 hPa 0,0 l/m 2,5 km/h (1 Bft) NW 315 7,2 C 13,2 C
14.06.2012 00:41 13,1 C 68 % 1017,4 hPa 0,0 l/m 0,0 km/h (0 Bft) NW 315 7,3 C 13,1 C
14.06.2012 00:46 13,0 C 68 % 1017,4 hPa 0,0 l/m 0,0 km/h (0 Bft) W-NW 292 7,2 C 13,0 C
14.06.2012 00:51 13,0 C 68 % 1017,5 hPa 0,0 l/m 1,8 km/h (1 Bft) NW 315 7,2 C 13,0 C
14.06.2012 00:56 12,9 C 69 % 1017,4 hPa 0,0 l/m 0,0 km/h (0 Bft) W-NW 292 7,4 C 12,9 C
14.06.2012 01:01 12,9 C 69 % 1017,5 hPa 0,0 l/m 1,4 km/h (1 Bft) NW 315 7,4 C 12,9 C
14.06.2012 01:06 12,9 C 69 % 1017,4 hPa 0,0 l/m 0,0 km/h (0 Bft) NW 315 7,4 C 12,9 C
14.06.2012 01:11 12,9 C 69 % 1017,4 hPa 0,0 l/m 1,4 km/h (1 Bft) W-NW 292 7,4 C 12,9 C
14.06.2012 01:16 12,9 C 69 % 1017,4 hPa 0,0 l/m 0,0 km/h (0 Bft) W-NW 292 7,4 C 12,9 C
14.06.2012 01:21 12,9 C 69 % 1017,5 hPa 0,0 l/m 1,4 km/h (1 Bft) NW 315 7,4 C 12,9 C
14.06.2012 01:26 12,8 C 69 % 1017,5 hPa 0,0 l/m 1,8 km/h (1 Bft) NW 315 7,3 C 12,8 C
14.06.2012 01:31 12,7 C 69 % 1017,4 hPa 0,0 l/m 2,2 km/h (1 Bft) N-NW 337 7,2 C 12,7 C
14.06.2012 01:36 12,6 C 69 % 1017,6 hPa 0,0 l/m 2,5 km/h (1 Bft) N-NW 337 7,1 C 12,6 C
14.06.2012 01:41 12,6 C 70 % 1017,6 hPa 0,0 l/m 0,0 km/h (0 Bft) NW 315 7,3 C 12,6 C
14.06.2012 01:46 12,6 C 70 % 1017,6 hPa 0,0 l/m 0,0 km/h (0 Bft) NW 315 7,3 C 12,6 C
14.06.2012 01:51 12,4 C 71 % 1017,5 hPa 0,0 l/m 2,2 km/h (1 Bft) NW 315 7,3 C 12,4 C
14.06.2012 01:56 12,3 C 71 % 1017,6 hPa 0,0 l/m 0,0 km/h (0 Bft) N 360 7,2 C 12,3 C
14.06.2012 02:01 12,1 C 71 % 1017,8 hPa 0,0 l/m 0,0 km/h (0 Bft) NW 315 7,0 C 12,1 C
14.06.2012 02:06 12,1 C 71 % 1017,7 hPa 0,0 l/m 2,2 km/h (1 Bft) N-NW 337 7,0 C 12,1 C
14.06.2012 02:11 12,1 C 71 % 1017,8 hPa 0,0 l/m 1,4 km/h (1 Bft) NW 315 7,0 C 12,1 C
14.06.2012 02:16 12,2 C 71 % 1017,8 hPa 0,0 l/m 0,0 km/h (0 Bft) NW 315 7,1 C 12,2 C
14.06.2012 02:21 12,1 C 71 % 1017,9 hPa 0,0 l/m 2,9 km/h (1 Bft) NW 315 7,0 C 12,1 C
14.06.2012 02:26 12,1 C 72 % 1017,9 hPa 0,0 l/m 0,0 km/h (0 Bft) N 360 7,2 C 12,1 C
14.06.2012 02:31 12,2 C 72 % 1017,8 hPa 0,0 l/m 1,4 km/h (1 Bft) N-NW 337 7,3 C 12,2 C
14.06.2012 02:36 12,2 C 72 % 1017,8 hPa 0,0 l/m 3,2 km/h (1 Bft) N-NW 337 7,3 C 12,2 C
14.06.2012 02:41 12,2 C 72 % 1017,8 hPa 0,0 l/m 1,8 km/h (1 Bft) N-NW 337 7,3 C 12,2 C
14.06.2012 02:46 12,2 C 72 % 1017,8 hPa 0,0 l/m 0,0 km/h (0 Bft) NW 315 7,3 C 12,2 C
14.06.2012 02:51 12,2 C 72 % 1017,9 hPa 0,0 l/m 0,0 km/h (0 Bft) N-NW 337 7,3 C 12,2 C
14.06.2012 02:56 12,1 C 72 % 1017,9 hPa 0,0 l/m 0,0 km/h (0 Bft) N-NW 337 7,2 C 12,1 C
14.06.2012 03:01 12,1 C 72 % 1017,9 hPa 0,0 l/m 0,0 km/h (0 Bft) N 360 7,2 C 12,1 C
14.06.2012 03:06 11,9 C 72 % 1018,0 hPa 0,0 l/m 0,0 km/h (0 Bft) N 360 7,0 C 11,9 C
14.06.2012 03:11 11,9 C 73 % 1018,0 hPa 0,0 l/m 0,0 km/h (0 Bft) N-NW 337 7,2 C 11,9 C
14.06.2012 03:16 11,9 C 73 % 1018,0 hPa 0,0 l/m 0,0 km/h (0 Bft) N 360 7,2 C 11,9 C
14.06.2012 03:21 11,9 C 73 % 1018,0 hPa 0,0 l/m 0,0 km/h (0 Bft) N 360 7,2 C 11,9 C
14.06.2012 03:26 11,9 C 72 % 1018,1 hPa 0,0 l/m 0,0 km/h (0 Bft) N 360 7,0 C 11,9 C
14.06.2012 03:31 11,9 C 72 % 1018,0 hPa 0,0 l/m 0,0 km/h (0 Bft) W-NW 292 7,0 C 11,9 C
14.06.2012 03:36 11,9 C 72 % 1018,1 hPa 0,0 l/m 0,0 km/h (0 Bft) N 360 7,0 C 11,9 C
14.06.2012 03:41 11,8 C 72 % 1018,2 hPa 0,0 l/m 0,0 km/h (0 Bft) N-NO 22 6,9 C 11,8 C
14.06.2012 03:46 11,6 C 73 % 1018,2 hPa 0,0 l/m 0,0 km/h (0 Bft) N-NW 337 6,9 C 11,6 C
14.06.2012 03:51 11,6 C 73 % 1018,2 hPa 0,0 l/m 0,0 km/h (0 Bft) N-NO 22 6,9 C 11,6 C
14.06.2012 03:56 11,6 C 73 % 1018,3 hPa 0,0 l/m 1,8 km/h (1 Bft) N-NO 22 6,9 C 11,6 C
14.06.2012 04:01 11,5 C 73 % 1018,3 hPa 0,0 l/m 0,0 km/h (0 Bft) NO 45 6,8 C 11,5 C
14.06.2012 04:06 11,4 C 73 % 1018,2 hPa 0,0 l/m 0,0 km/h (0 Bft) NO 45 6,7 C 11,4 C
14.06.2012 04:11 11,3 C 73 % 1018,3 hPa 0,0 l/m 0,0 km/h (0 Bft) NO 45 6,6 C 11,3 C
14.06.2012 04:16 11,1 C 73 % 1018,3 hPa 0,0 l/m 0,0 km/h (0 Bft) N-NW 337 6,4 C 11,1 C
14.06.2012 04:21 11,2 C 74 % 1018,3 hPa 0,0 l/m 0,0 km/h (0 Bft) W-NW 292 6,7 C 11,2 C
14.06.2012 04:26 11,3 C 74 % 1018,1 hPa 0,0 l/m 1,8 km/h (1 Bft) W 270 6,8 C 11,3 C
14.06.2012 04:31 11,4 C 74 % 1018,2 hPa 0,0 l/m 0,0 km/h (0 Bft) NW 315 6,9 C 11,4 C
14.06.2012 04:36 11,4 C 74 % 1018,1 hPa 0,0 l/m 1,4 km/h (1 Bft) NW 315 6,9 C 11,4 C
14.06.2012 04:41 11,3 C 74 % 1018,2 hPa 0,0 l/m 1,8 km/h (1 Bft) N-NW 337 6,8 C 11,3 C
14.06.2012 04:46 11,3 C 74 % 1018,2 hPa 0,0 l/m 0,0 km/h (0 Bft) N 360 6,8 C 11,3 C
14.06.2012 04:51 11,3 C 75 % 1018,3 hPa 0,0 l/m 0,0 km/h (0 Bft) N 360 7,0 C 11,3 C
14.06.2012 04:56 11,3 C 75 % 1018,3 hPa 0,0 l/m 2,2 km/h (1 Bft) N-NW 337 7,0 C 11,3 C
14.06.2012 05:01 11,3 C 75 % 1018,4 hPa 0,0 l/m 2,9 km/h (1 Bft) NW 315 7,0 C 11,3 C
14.06.2012 05:06 11,4 C 75 % 1018,3 hPa 0,0 l/m 1,4 km/h (1 Bft) W-NW 292 7,1 C 11,4 C
14.06.2012 05:11 11,4 C 75 % 1018,5 hPa 0,0 l/m 0,0 km/h (0 Bft) W-NW 292 7,1 C 11,4 C
14.06.2012 05:16 11,5 C 75 % 1018,5 hPa 0,0 l/m 4,0 km/h (1 Bft) W-NW 292 7,2 C 11,5 C
14.06.2012 05:21 11,5 C 75 % 1018,6 hPa 0,0 l/m 3,2 km/h (1 Bft) W 270 7,2 C 11,5 C
14.06.2012 05:26 11,6 C 75 % 1018,6 hPa 0,0 l/m 0,0 km/h (0 Bft) N-NW 337 7,3 C 11,6 C
14.06.2012 05:31 11,6 C 75 % 1018,6 hPa 0,0 l/m 3,2 km/h (1 Bft) W-NW 292 7,3 C 11,6 C
14.06.2012 05:36 11,5 C 75 % 1018,7 hPa 0,0 l/m 2,5 km/h (1 Bft) NW 315 7,2 C 11,5 C
14.06.2012 05:41 11,6 C 75 % 1018,7 hPa 0,0 l/m 0,0 km/h (0 Bft) W 270 7,3 C 11,6 C
14.06.2012 05:46 11,6 C 75 % 1018,7 hPa 0,0 l/m 0,0 km/h (0 Bft) W 270 7,3 C 11,6 C
14.06.2012 05:51 11,6 C 75 % 1018,9 hPa 0,0 l/m 0,0 km/h (0 Bft) W 270 7,3 C 11,6 C
14.06.2012 05:56 11,6 C 75 % 1018,9 hPa 0,0 l/m 2,9 km/h (1 Bft) W-NW 292 7,3 C 11,6 C
14.06.2012 06:01 11,6 C 75 % 1018,8 hPa 0,0 l/m 1,8 km/h (1 Bft) W-NW 292 7,3 C 11,6 C
14.06.2012 06:06 11,6 C 76 % 1018,9 hPa 0,0 l/m 0,0 km/h (0 Bft) W-NW 292 7,5 C 11,6 C
14.06.2012 06:11 11,6 C 76 % 1018,9 hPa 0,0 l/m 2,9 km/h (1 Bft) W-NW 292 7,5 C 11,6 C
14.06.2012 06:16 11,6 C 76 % 1018,9 hPa 0,0 l/m 2,5 km/h (1 Bft) W 270 7,5 C 11,6 C
14.06.2012 06:21 11,6 C 76 % 1018,9 hPa 0,0 l/m 1,4 km/h (1 Bft) W-NW 292 7,5 C 11,6 C
14.06.2012 06:26 11,6 C 76 % 1019,0 hPa 0,0 l/m 0,0 km/h (0 Bft) W-NW 292 7,5 C 11,6 C
14.06.2012 06:31 11,6 C 76 % 1019,0 hPa 0,0 l/m 1,4 km/h (1 Bft) W 270 7,5 C 11,6 C
14.06.2012 06:36 11,6 C 76 % 1019,1 hPa 0,0 l/m 0,0 km/h (0 Bft) W-SW 247 7,5 C 11,6 C
14.06.2012 06:41 11,8 C 76 % 1019,2 hPa 0,0 l/m 4,0 km/h (1 Bft) S-SW 202 7,7 C 11,8 C
14.06.2012 06:46 11,9 C 76 % 1019,2 hPa 0,0 l/m 4,7 km/h (1 Bft) W 270 7,8 C 11,9 C
14.06.2012 06:51 12,2 C 76 % 1019,3 hPa 0,0 l/m 0,0 km/h (0 Bft) NW 315 8,1 C 12,2 C
14.06.2012 06:56 12,3 C 76 % 1019,2 hPa 0,0 l/m 1,4 km/h (1 Bft) W-NW 292 8,2 C 12,3 C
14.06.2012 07:01 12,4 C 76 % 1019,2 hPa 0,0 l/m 3,6 km/h (1 Bft) NW 315 8,3 C 12,4 C
14.06.2012 07:06 12,5 C 75 % 1019,2 hPa 0,0 l/m 5,4 km/h (1 Bft) W-NW 292 8,2 C 12,5 C
14.06.2012 07:11 12,5 C 74 % 1019,2 hPa 0,0 l/m 4,3 km/h (1 Bft) W 270 8,0 C 12,5 C
14.06.2012 07:16 12,4 C 74 % 1019,3 hPa 0,0 l/m 4,3 km/h (1 Bft) W 270 7,9 C 12,4 C
14.06.2012 07:21 12,5 C 75 % 1019,3 hPa 0,0 l/m 0,0 km/h (0 Bft) W 270 8,2 C 12,5 C
14.06.2012 07:26 12,5 C 74 % 1019,2 hPa 0,0 l/m 1,4 km/h (1 Bft) W-NW 292 8,0 C 12,5 C
14.06.2012 07:31 12,5 C 75 % 1019,3 hPa 0,0 l/m 2,5 km/h (1 Bft) W-NW 292 8,2 C 12,5 C
14.06.2012 07:36 12,5 C 75 % 1019,5 hPa 0,0 l/m 3,6 km/h (1 Bft) NW 315 8,2 C 12,5 C
14.06.2012 07:41 12,4 C 75 % 1019,5 hPa 0,0 l/m 2,5 km/h (1 Bft) W-NW 292 8,1 C 12,4 C
14.06.2012 07:46 12,4 C 75 % 1019,5 hPa 0,0 l/m 4,0 km/h (1 Bft) W-NW 292 8,1 C 12,4 C
14.06.2012 07:51 12,4 C 75 % 1019,6 hPa 0,0 l/m 4,0 km/h (1 Bft) W 270 8,1 C 12,4 C
14.06.2012 07:56 12,5 C 75 % 1019,6 hPa 0,0 l/m 3,2 km/h (1 Bft) W 270 8,2 C 12,5 C
14.06.2012 08:01 12,5 C 76 % 1019,7 hPa 0,0 l/m 0,0 km/h (0 Bft) N-NW 337 8,4 C 12,5 C
14.06.2012 08:06 12,6 C 76 % 1019,7 hPa 0,0 l/m 6,1 km/h (2 Bft) W-NW 292 8,5 C 12,6 C
14.06.2012 08:11 12,8 C 76 % 1019,8 hPa 0,0 l/m 5,0 km/h (1 Bft) W 270 8,7 C 12,8 C
14.06.2012 08:16 13,0 C 75 % 1019,8 hPa 0,0 l/m 4,7 km/h (1 Bft) NW 315 8,7 C 13,0 C
14.06.2012 08:21 13,3 C 75 % 1019,7 hPa 0,0 l/m 2,9 km/h (1 Bft) NW 315 9,0 C 13,3 C
14.06.2012 08:26 13,5 C 75 % 1019,6 hPa 0,0 l/m 0,0 km/h (0 Bft) W-NW 292 9,2 C 13,5 C
14.06.2012 08:31 13,9 C 74 % 1019,5 hPa 0,0 l/m 1,8 km/h (1 Bft) N-NW 337 9,3 C 13,9 C
14.06.2012 08:36 14,1 C 73 % 1019,7 hPa 0,0 l/m 3,2 km/h (1 Bft) O 90 9,3 C 14,1 C
14.06.2012 08:41 14,2 C 72 % 1019,7 hPa 0,0 l/m 2,9 km/h (1 Bft) W-NW 292 9,2 C 14,2 C
14.06.2012 08:46 14,4 C 72 % 1019,7 hPa 0,0 l/m 3,6 km/h (1 Bft) W-NW 292 9,4 C 14,4 C
14.06.2012 08:51 14,6 C 71 % 1019,9 hPa 0,0 l/m 1,8 km/h (1 Bft) W-SW 247 9,4 C 14,6 C
14.06.2012 08:56 14,8 C 71 % 1019,9 hPa 0,0 l/m 1,8 km/h (1 Bft) NW 315 9,6 C 14,8 C
14.06.2012 09:01 14,9 C 70 % 1019,9 hPa 0,0 l/m 3,2 km/h (1 Bft) W-NW 292 9,5 C 14,9 C
14.06.2012 09:06 14,9 C 70 % 1020,2 hPa 0,0 l/m 2,5 km/h (1 Bft) W 270 9,5 C 14,9 C
14.06.2012 09:11 15,0 C 69 % 1020,0 hPa 0,0 l/m 1,8 km/h (1 Bft) W 270 9,4 C 15,0 C
14.06.2012 09:16 14,9 C 68 % 1020,2 hPa 0,0 l/m 0,0 km/h (0 Bft) N-NW 337 9,0 C 14,9 C
14.06.2012 09:21 14,9 C 68 % 1020,2 hPa 0,0 l/m 6,1 km/h (2 Bft) W-NW 292 9,0 C 14,9 C
14.06.2012 09:26 14,9 C 68 % 1020,2 hPa 0,0 l/m 2,9 km/h (1 Bft) NW 315 9,0 C 14,9 C
14.06.2012 09:31 14,9 C 66 % 1020,1 hPa 0,0 l/m 3,6 km/h (1 Bft) N-NO 22 8,6 C 14,9 C
14.06.2012 09:36 14,9 C 67 % 1020,2 hPa 0,0 l/m 5,4 km/h (1 Bft) W 270 8,8 C 14,9 C
14.06.2012 09:41 14,9 C 65 % 1020,2 hPa 0,0 l/m 4,0 km/h (1 Bft) O-NO 67 8,4 C 14,9 C
14.06.2012 09:46 14,9 C 64 % 1020,3 hPa 0,0 l/m 8,3 km/h (2 Bft) N-NO 22 8,2 C 14,9 C
14.06.2012 09:51 14,9 C 64 % 1020,3 hPa 0,0 l/m 2,2 km/h (1 Bft) NW 315 8,2 C 14,9 C
14.06.2012 09:56 14,9 C 64 % 1020,3 hPa 0,0 l/m 3,6 km/h (1 Bft) W-NW 292 8,2 C 14,9 C
14.06.2012 10:01 15,1 C 64 % 1020,3 hPa 0,0 l/m 2,9 km/h (1 Bft) W 270 8,3 C 15,1 C
14.06.2012 10:06 15,4 C 63 % 1020,4 hPa 0,0 l/m 3,2 km/h (1 Bft) W-NW 292 8,4 C 15,4 C
14.06.2012 10:11 15,4 C 62 % 1020,4 hPa 0,0 l/m 2,2 km/h (1 Bft) O-NO 67 8,2 C 15,4 C
14.06.2012 10:16 15,3 C 62 % 1020,4 hPa 0,0 l/m 5,0 km/h (1 Bft) NW 315 8,1 C 15,3 C
14.06.2012 10:21 15,3 C 60 % 1020,4 hPa 0,0 l/m 4,7 km/h (1 Bft) O-NO 67 7,6 C 15,3 C
14.06.2012 10:26 15,1 C 60 % 1020,4 hPa 0,0 l/m 5,0 km/h (1 Bft) NO 45 7,4 C 15,1 C
14.06.2012 10:31 15,0 C 59 % 1020,4 hPa 0,0 l/m 4,7 km/h (1 Bft) W-NW 292 7,1 C 15,0 C
14.06.2012 10:36 15,0 C 60 % 1020,4 hPa 0,0 l/m 2,9 km/h (1 Bft) W-NW 292 7,3 C 15,0 C
14.06.2012 10:41 15,1 C 60 % 1020,4 hPa 0,0 l/m 1,8 km/h (1 Bft) W-SW 247 7,4 C 15,1 C
14.06.2012 10:46 15,4 C 60 % 1020,5 hPa 0,0 l/m 1,8 km/h (1 Bft) N-NW 337 7,7 C 15,4 C
14.06.2012 10:51 15,6 C 60 % 1020,7 hPa 0,0 l/m 3,6 km/h (1 Bft) NW 315 7,9 C 15,6 C
14.06.2012 10:56 15,8 C 60 % 1020,5 hPa 0,0 l/m 0,0 km/h (0 Bft) W 270 8,1 C 15,8 C
14.06.2012 11:01 15,8 C 60 % 1020,5 hPa 0,0 l/m 0,0 km/h (0 Bft) W 270 8,1 C 15,8 C
14.06.2012 11:06 15,9 C 59 % 1020,7 hPa 0,0 l/m 1,4 km/h (1 Bft) N 360 7,9 C 15,9 C
14.06.2012 11:11 15,6 C 59 % 1020,8 hPa 0,0 l/m 4,0 km/h (1 Bft) W-NW 292 7,6 C 15,6 C
14.06.2012 11:16 15,5 C 59 % 1020,7 hPa 0,0 l/m 3,2 km/h (1 Bft) NO 45 7,5 C 15,5 C
14.06.2012 11:21 15,4 C 59 % 1020,7 hPa 0,0 l/m 1,4 km/h (1 Bft) N 360 7,4 C 15,4 C
14.06.2012 11:26 15,3 C 59 % 1020,8 hPa 0,0 l/m 4,0 km/h (1 Bft) N-NW 337 7,3 C 15,3 C
14.06.2012 11:31 14,9 C 58 % 1020,7 hPa 0,0 l/m 2,2 km/h (1 Bft) N-NO 22 6,7 C 14,9 C
14.06.2012 11:36 14,9 C 59 % 1020,8 hPa 0,0 l/m 1,8 km/h (1 Bft) N-NO 22 7,0 C 14,9 C
14.06.2012 11:41 14,8 C 59 % 1020,8 hPa 0,0 l/m 4,3 km/h (1 Bft) N 360 6,9 C 14,8 C
14.06.2012 11:46 14,8 C 59 % 1020,7 hPa 0,0 l/m 0,0 km/h (0 Bft) N-NO 22 6,9 C 14,8 C
14.06.2012 11:51 14,9 C 59 % 1020,7 hPa 0,0 l/m 2,2 km/h (1 Bft) NO 45 7,0 C 14,9 C
14.06.2012 11:56 14,9 C 60 % 1020,6 hPa 0,0 l/m 0,0 km/h (0 Bft) NW 315 7,2 C 14,9 C
14.06.2012 12:01 15,4 C 60 % 1020,6 hPa 0,0 l/m 0,0 km/h (0 Bft) W 270 7,7 C 15,4 C
14.06.2012 12:06 15,7 C 60 % 1020,7 hPa 0,0 l/m 4,0 km/h (1 Bft) NO 45 8,0 C 15,7 C
14.06.2012 12:11 15,8 C 58 % 1020,6 hPa 0,0 l/m 1,8 km/h (1 Bft) N-NW 337 7,6 C 15,8 C
14.06.2012 12:16 15,9 C 58 % 1020,7 hPa 0,0 l/m 0,0 km/h (0 Bft) SO 135 7,6 C 15,9 C
14.06.2012 12:21 16,2 C 58 % 1020,8 hPa 0,0 l/m 2,5 km/h (1 Bft) W-NW 292 7,9 C 16,2 C
14.06.2012 12:26 16,4 C 58 % 1020,7 hPa 0,0 l/m 2,5 km/h (1 Bft) S-SW 202 8,1 C 16,4 C
14.06.2012 12:31 16,6 C 58 % 1020,8 hPa 0,0 l/m 1,8 km/h (1 Bft) SO 135 8,3 C 16,6 C
14.06.2012 12:36 16,9 C 58 % 1020,8 hPa 0,0 l/m 0,0 km/h (0 Bft) SW 225 8,6 C 16,9 C
14.06.2012 12:41 17,2 C 56 % 1020,7 hPa 0,0 l/m 2,9 km/h (1 Bft) N-NW 337 8,3 C 17,2 C
14.06.2012 12:46 17,1 C 56 % 1020,7 hPa 0,0 l/m 2,2 km/h (1 Bft) NO 45 8,3 C 17,1 C
14.06.2012 12:51 17,1 C 54 % 1020,6 hPa 0,0 l/m 0,0 km/h (0 Bft) N 360 7,7 C 17,1 C
14.06.2012 12:56 17,0 C 54 % 1020,7 hPa 0,0 l/m 5,0 km/h (1 Bft) NW 315 7,6 C 17,0 C
14.06.2012 13:01 17,3 C 54 % 1020,6 hPa 0,0 l/m 0,0 km/h (0 Bft) N-NW 337 7,9 C 17,3 C
14.06.2012 13:06 17,4 C 53 % 1020,8 hPa 0,0 l/m 5,8 km/h (2 Bft) N 360 7,7 C 17,4 C
14.06.2012 13:11 17,3 C 53 % 1020,7 hPa 0,0 l/m 5,8 km/h (2 Bft) N 360 7,6 C 17,3 C
14.06.2012 13:16 17,5 C 53 % 1020,7 hPa 0,0 l/m 7,6 km/h (2 Bft) SW 225 7,8 C 17,5 C
14.06.2012 13:21 17,8 C 53 % 1020,8 hPa 0,0 l/m 7,9 km/h (2 Bft) W-NW 292 8,1 C 17,8 C
14.06.2012 13:26 18,0 C 52 % 1020,7 hPa 0,0 l/m 4,0 km/h (1 Bft) W 270 8,0 C 18,0 C
14.06.2012 13:31 18,2 C 51 % 1020,6 hPa 0,0 l/m 5,4 km/h (1 Bft) N-NW 337 7,9 C 18,2 C
14.06.2012 13:36 18,3 C 51 % 1020,6 hPa 0,0 l/m 8,6 km/h (2 Bft) W-SW 247 8,0 C 18,3 C
14.06.2012 13:41 18,4 C 50 % 1020,7 hPa 0,0 l/m 2,5 km/h (1 Bft) W 270 7,8 C 18,4 C
14.06.2012 13:46 18,4 C 49 % 1020,6 hPa 0,0 l/m 7,2 km/h (2 Bft) NW 315 7,5 C 18,4 C
14.06.2012 13:51 18,3 C 49 % 1020,7 hPa 0,0 l/m 7,6 km/h (2 Bft) NW 315 7,4 C 18,3 C
14.06.2012 13:56 18,3 C 50 % 1020,6 hPa 0,0 l/m 12,6 km/h (3 Bft) W-SW 247 7,7 C 18,3 C
14.06.2012 14:01 18,3 C 50 % 1020,6 hPa 0,0 l/m 2,9 km/h (1 Bft) W-NW 292 7,7 C 18,3 C
14.06.2012 14:06 18,3 C 50 % 1020,5 hPa 0,0 l/m 8,3 km/h (2 Bft) W 270 7,7 C 18,3 C
14.06.2012 14:11 18,3 C 50 % 1020,6 hPa 0,0 l/m 21,6 km/h (4 Bft) W-SW 247 7,7 C 18,3 C
14.06.2012 14:16 18,3 C 50 % 1020,6 hPa 0,0 l/m 4,0 km/h (1 Bft) SW 225 7,7 C 18,3 C
14.06.2012 14:21 18,3 C 51 % 1020,6 hPa 0,0 l/m 6,8 km/h (2 Bft) W 270 8,0 C 18,3 C
14.06.2012 14:26 18,4 C 52 % 1020,5 hPa 0,0 l/m 1,4 km/h (1 Bft) W 270 8,4 C 18,4 C
14.06.2012 14:31 18,6 C 51 % 1020,4 hPa 0,0 l/m 10,8 km/h (2 Bft) W-SW 247 8,3 C 18,6 C
14.06.2012 14:36 18,7 C 50 % 1020,4 hPa 0,0 l/m 5,0 km/h (1 Bft) W 270 8,1 C 18,7 C
14.06.2012 14:41 18,9 C 50 % 1020,4 hPa 0,0 l/m 8,3 km/h (2 Bft) W 270 8,2 C 18,9 C
14.06.2012 14:46 19,3 C 49 % 1020,4 hPa 0,0 l/m 3,2 km/h (1 Bft) W-SW 247 8,3 C 19,3 C
14.06.2012 14:51 19,4 C 48 % 1020,3 hPa 0,0 l/m 6,1 km/h (2 Bft) W-NW 292 8,1 C 19,4 C
14.06.2012 14:56 19,5 C 48 % 1020,3 hPa 0,0 l/m 11,2 km/h (2 Bft) W 270 8,2 C 19,5 C
14.06.2012 15:01 19,4 C 48 % 1020,3 hPa 0,0 l/m 5,8 km/h (2 Bft) W 270 8,1 C 19,4 C
14.06.2012 15:06 19,4 C 48 % 1020,2 hPa 0,0 l/m 5,8 km/h (2 Bft) W-SW 247 8,1 C 19,4 C
14.06.2012 15:11 19,5 C 48 % 1020,2 hPa 0,0 l/m 7,2 km/h (2 Bft) SW 225 8,2 C 19,5 C
14.06.2012 15:16 19,6 C 47 % 1020,2 hPa 0,0 l/m 6,1 km/h (2 Bft) W-SW 247 8,0 C 19,6 C
14.06.2012 15:21 19,3 C 47 % 1020,3 hPa 0,0 l/m 17,6 km/h (3 Bft) SW 225 7,7 C 19,3 C
14.06.2012 15:26 19,3 C 48 % 1020,3 hPa 0,0 l/m 9,7 km/h (2 Bft) SW 225 8,0 C 19,3 C
14.06.2012 15:31 19,3 C 48 % 1020,2 hPa 0,0 l/m 11,2 km/h (2 Bft) SW 225 8,0 C 19,3 C
14.06.2012 15:36 19,2 C 48 % 1020,2 hPa 0,0 l/m 11,2 km/h (2 Bft) W-SW 247 7,9 C 19,2 C
14.06.2012 15:41 19,0 C 48 % 1020,2 hPa 0,0 l/m 11,9 km/h (2 Bft) W-NW 292 7,7 C 19,0 C
14.06.2012 15:46 18,9 C 49 % 1020,3 hPa 0,0 l/m 3,6 km/h (1 Bft) W 270 7,9 C 18,9 C
14.06.2012 15:51 18,7 C 49 % 1020,2 hPa 0,0 l/m 6,1 km/h (2 Bft) W 270 7,8 C 18,7 C
14.06.2012 15:56 18,7 C 50 % 1020,2 hPa 0,0 l/m 3,2 km/h (1 Bft) SW 225 8,1 C 18,7 C
14.06.2012 16:01 18,8 C 50 % 1020,1 hPa 0,0 l/m 6,5 km/h (2 Bft) O-NO 67 8,2 C 18,8 C
14.06.2012 16:06 18,5 C 49 % 1020,1 hPa 0,0 l/m 6,5 km/h (2 Bft) NO 45 7,6 C 18,5 C
14.06.2012 16:11 18,4 C 48 % 1020,2 hPa 0,0 l/m 0,0 km/h (0 Bft) W-SW 247 7,2 C 18,4 C
14.06.2012 16:16 18,4 C 49 % 1020,1 hPa 0,0 l/m 4,3 km/h (1 Bft) NW 315 7,5 C 18,4 C
14.06.2012 16:21 18,8 C 49 % 1020,1 hPa 0,0 l/m 6,1 km/h (2 Bft) W 270 7,9 C 18,8 C
14.06.2012 16:26 19,0 C 49 % 1020,0 hPa 0,0 l/m 0,0 km/h (0 Bft) W 270 8,0 C 19,0 C
14.06.2012 16:31 19,2 C 49 % 1020,2 hPa 0,0 l/m 15,8 km/h (3 Bft) W-SW 247 8,2 C 19,2 C
14.06.2012 16:36 19,3 C 49 % 1020,1 hPa 0,0 l/m 4,7 km/h (1 Bft) N-NW 337 8,3 C 19,3 C
14.06.2012 16:41 19,6 C 49 % 1020,1 hPa 0,0 l/m 11,5 km/h (2 Bft) W 270 8,6 C 19,6 C
14.06.2012 16:46 19,9 C 48 % 1020,1 hPa 0,0 l/m 6,5 km/h (2 Bft) W-SW 247 8,6 C 19,9 C
14.06.2012 16:51 19,9 C 47 % 1020,1 hPa 0,0 l/m 10,8 km/h (2 Bft) SW 225 8,3 C 19,9 C
14.06.2012 16:56 19,9 C 47 % 1020,0 hPa 0,0 l/m 13,3 km/h (3 Bft) W-SW 247 8,3 C 19,9 C
14.06.2012 17:01 19,8 C 47 % 1020,0 hPa 0,0 l/m 6,5 km/h (2 Bft) SW 225 8,2 C 19,8 C
14.06.2012 17:06 19,6 C 48 % 1020,0 hPa 0,0 l/m 8,6 km/h (2 Bft) W 270 8,3 C 19,6 C
14.06.2012 17:11 19,5 C 48 % 1020,0 hPa 0,0 l/m 8,6 km/h (2 Bft) W-SW 247 8,2 C 19,5 C
14.06.2012 17:16 19,4 C 48 % 1020,0 hPa 0,0 l/m 7,9 km/h (2 Bft) W-SW 247 8,1 C 19,4 C
14.06.2012 17:21 19,3 C 48 % 1020,0 hPa 0,0 l/m 8,3 km/h (2 Bft) W 270 8,0 C 19,3 C
14.06.2012 17:26 19,1 C 48 % 1020,0 hPa 0,0 l/m 4,7 km/h (1 Bft) S 180 7,8 C 19,1 C
14.06.2012 17:31 19,0 C 49 % 1020,0 hPa 0,0 l/m 4,0 km/h (1 Bft) SW 225 8,0 C 19,0 C
14.06.2012 17:36 18,9 C 49 % 1020,1 hPa 0,0 l/m 11,9 km/h (2 Bft) W-SW 247 7,9 C 18,9 C
14.06.2012 17:41 18,9 C 49 % 1020,0 hPa 0,0 l/m 8,6 km/h (2 Bft) W 270 7,9 C 18,9 C
14.06.2012 17:46 18,7 C 49 % 1020,0 hPa 0,0 l/m 2,9 km/h (1 Bft) W-SW 247 7,8 C 18,7 C
14.06.2012 17:51 18,6 C 50 % 1020,1 hPa 0,0 l/m 6,5 km/h (2 Bft) W-SW 247 8,0 C 18,6 C
14.06.2012 17:56 18,6 C 50 % 1020,0 hPa 0,0 l/m 3,2 km/h (1 Bft) W-SW 247 8,0 C 18,6 C
14.06.2012 18:01 18,7 C 50 % 1020,1 hPa 0,0 l/m 10,8 km/h (2 Bft) SW 225 8,1 C 18,7 C
14.06.2012 18:06 18,7 C 51 % 1020,1 hPa 0,0 l/m 9,4 km/h (2 Bft) W 270 8,4 C 18,7 C
14.06.2012 18:11 18,8 C 51 % 1020,1 hPa 0,0 l/m 0,0 km/h (0 Bft) W 270 8,4 C 18,8 C
14.06.2012 18:16 18,7 C 51 % 1020,2 hPa 0,0 l/m 4,7 km/h (1 Bft) S-SW 202 8,4 C 18,7 C
14.06.2012 18:21 18,6 C 51 % 1020,1 hPa 0,0 l/m 6,1 km/h (2 Bft) W-SW 247 8,3 C 18,6 C
14.06.2012 18:26 18,5 C 51 % 1020,2 hPa 0,0 l/m 6,5 km/h (2 Bft) S-SO 157 8,2 C 18,5 C
14.06.2012 18:31 18,3 C 51 % 1020,2 hPa 0,0 l/m 5,8 km/h (2 Bft) S 180 8,0 C 18,3 C
14.06.2012 18:36 18,3 C 51 % 1020,2 hPa 0,0 l/m 6,5 km/h (2 Bft) S 180 8,0 C 18,3 C
14.06.2012 18:41 18,2 C 52 % 1020,2 hPa 0,0 l/m 8,3 km/h (2 Bft) W 270 8,2 C 18,2 C
14.06.2012 18:46 18,2 C 52 % 1020,2 hPa 0,0 l/m 6,5 km/h (2 Bft) S-SW 202 8,2 C 18,2 C
14.06.2012 18:51 18,4 C 52 % 1020,3 hPa 0,0 l/m 5,0 km/h (1 Bft) S-SW 202 8,4 C 18,4 C
14.06.2012 18:56 18,5 C 52 % 1020,2 hPa 0,0 l/m 7,6 km/h (2 Bft) SW 225 8,5 C 18,5 C
14.06.2012 19:01 18,4 C 52 % 1020,1 hPa 0,0 l/m 2,9 km/h (1 Bft) W-SW 247 8,4 C 18,4 C
14.06.2012 19:06 18,4 C 51 % 1020,0 hPa 0,0 l/m 4,7 km/h (1 Bft) SW 225 8,1 C 18,4 C
14.06.2012 19:11 18,4 C 51 % 1020,1 hPa 0,0 l/m 4,7 km/h (1 Bft) S-SW 202 8,1 C 18,4 C
14.06.2012 19:16 18,6 C 51 % 1020,0 hPa 0,0 l/m 3,6 km/h (1 Bft) S 180 8,3 C 18,6 C
14.06.2012 19:21 18,5 C 51 % 1020,3 hPa 0,0 l/m 9,0 km/h (2 Bft) SW 225 8,2 C 18,5 C
14.06.2012 19:26 18,4 C 51 % 1020,1 hPa 0,0 l/m 6,1 km/h (2 Bft) SW 225 8,1 C 18,4 C
14.06.2012 19:31 18,2 C 51 % 1020,1 hPa 0,0 l/m 3,2 km/h (1 Bft) S-SW 202 7,9 C 18,2 C
14.06.2012 19:36 18,1 C 52 % 1020,2 hPa 0,0 l/m 5,4 km/h (1 Bft) W-SW 247 8,1 C 18,1 C
14.06.2012 19:41 18,1 C 52 % 1020,2 hPa 0,0 l/m 4,3 km/h (1 Bft) W 270 8,1 C 18,1 C
14.06.2012 19:46 18,1 C 52 % 1020,2 hPa 0,0 l/m 2,5 km/h (1 Bft) W-SW 247 8,1 C 18,1 C
14.06.2012 19:51 18,1 C 52 % 1020,1 hPa 0,0 l/m 2,9 km/h (1 Bft) SW 225 8,1 C 18,1 C
14.06.2012 19:56 18,4 C 52 % 1020,2 hPa 0,0 l/m 5,8 km/h (2 Bft) W-SW 247 8,4 C 18,4 C
14.06.2012 20:01 18,5 C 52 % 1020,3 hPa 0,0 l/m 3,2 km/h (1 Bft) SO 135 8,5 C 18,5 C
14.06.2012 20:06 18,5 C 51 % 1020,0 hPa 0,0 l/m 5,0 km/h (1 Bft) SW 225 8,2 C 18,5 C
14.06.2012 20:11 18,4 C 51 % 1020,1 hPa 0,0 l/m 5,8 km/h (2 Bft) W-SW 247 8,1 C 18,4 C
14.06.2012 20:16 18,3 C 51 % 1020,2 hPa 0,0 l/m 1,4 km/h (1 Bft) SW 225 8,0 C 18,3 C
14.06.2012 20:21 18,0 C 52 % 1020,2 hPa 0,0 l/m 3,2 km/h (1 Bft) SW 225 8,0 C 18,0 C
14.06.2012 20:26 17,9 C 52 % 1020,1 hPa 0,0 l/m 1,8 km/h (1 Bft) S-SW 202 7,9 C 17,9 C
14.06.2012 20:31 17,8 C 52 % 1020,1 hPa 0,0 l/m 2,5 km/h (1 Bft) SW 225 7,8 C 17,8 C
14.06.2012 20:36 17,8 C 53 % 1020,2 hPa 0,0 l/m 2,2 km/h (1 Bft) W-SW 247 8,1 C 17,8 C
14.06.2012 20:41 17,6 C 53 % 1020,3 hPa 0,0 l/m 3,2 km/h (1 Bft) S-SW 202 7,9 C 17,6 C
14.06.2012 20:46 17,5 C 54 % 1020,3 hPa 0,0 l/m 2,5 km/h (1 Bft) W-SW 247 8,1 C 17,5 C
14.06.2012 20:51 17,4 C 54 % 1020,3 hPa 0,0 l/m 2,5 km/h (1 Bft) SW 225 8,0 C 17,4 C
14.06.2012 20:56 17,3 C 54 % 1020,4 hPa 0,0 l/m 2,2 km/h (1 Bft) W-SW 247 7,9 C 17,3 C
14.06.2012 21:01 17,1 C 54 % 1020,4 hPa 0,0 l/m 0,0 km/h (0 Bft) W-SW 247 7,7 C 17,1 C
14.06.2012 21:06 17,1 C 55 % 1020,5 hPa 0,0 l/m 3,2 km/h (1 Bft) W 270 8,0 C 17,1 C
14.06.2012 21:11 16,9 C 55 % 1020,5 hPa 0,0 l/m 0,0 km/h (0 Bft) W-SW 247 7,8 C 16,9 C
14.06.2012 21:16 16,8 C 56 % 1020,4 hPa 0,0 l/m 2,9 km/h (1 Bft) W-SW 247 8,0 C 16,8 C
14.06.2012 21:21 16,7 C 56 % 1020,4 hPa 0,0 l/m 0,0 km/h (0 Bft) W-SW 247 7,9 C 16,7 C
14.06.2012 21:26 16,5 C 56 % 1020,6 hPa 0,0 l/m 0,0 km/h (0 Bft) W-SW 247 7,7 C 16,5 C
14.06.2012 21:31 16,4 C 57 % 1020,5 hPa 0,0 l/m 0,0 km/h (0 Bft) SW 225 7,9 C 16,4 C
14.06.2012 21:36 16,3 C 58 % 1020,5 hPa 0,0 l/m 0,0 km/h (0 Bft) S-SW 202 8,0 C 16,3 C
14.06.2012 21:41 16,2 C 58 % 1020,7 hPa 0,0 l/m 0,0 km/h (0 Bft) S-SW 202 7,9 C 16,2 C
14.06.2012 21:46 16,2 C 58 % 1020,6 hPa 0,0 l/m 1,4 km/h (1 Bft) SW 225 7,9 C 16,2 C
14.06.2012 21:51 16,1 C 59 % 1020,7 hPa 0,0 l/m 0,0 km/h (0 Bft) S-SW 202 8,1 C 16,1 C
14.06.2012 21:56 16,1 C 59 % 1020,7 hPa 0,0 l/m 0,0 km/h (0 Bft) S-SW 202 8,1 C 16,1 C
14.06.2012 22:01 15,9 C 59 % 1020,5 hPa 0,0 l/m 0,0 km/h (0 Bft) S-SW 202 7,9 C 15,9 C
14.06.2012 22:06 15,8 C 60 % 1020,7 hPa 0,0 l/m 0,0 km/h (0 Bft) S-SW 202 8,1 C 15,8 C
14.06.2012 22:11 15,7 C 60 % 1020,5 hPa 0,0 l/m 0,0 km/h (0 Bft) S-SW 202 8,0 C 15,7 C
14.06.2012 22:16 15,6 C 60 % 1020,7 hPa 0,0 l/m 0,0 km/h (0 Bft) W-SW 247 7,9 C 15,6 C
14.06.2012 22:21 15,5 C 61 % 1020,7 hPa 0,0 l/m 2,5 km/h (1 Bft) SW 225 8,0 C 15,5 C
14.06.2012 22:26 15,5 C 61 % 1020,6 hPa 0,0 l/m 0,0 km/h (0 Bft) SW 225 8,0 C 15,5 C
14.06.2012 22:31 15,4 C 62 % 1020,6 hPa 0,0 l/m 0,0 km/h (0 Bft) SW 225 8,2 C 15,4 C
14.06.2012 22:36 15,3 C 62 % 1020,4 hPa 0,0 l/m 0,0 km/h (0 Bft) SW 225 8,1 C 15,3 C
14.06.2012 22:41 15,0 C 62 % 1020,6 hPa 0,0 l/m 0,0 km/h (0 Bft) SW 225 7,8 C 15,0 C
14.06.2012 22:46 14,9 C 63 % 1020,5 hPa 0,0 l/m 0,0 km/h (0 Bft) SW 225 7,9 C 14,9 C
14.06.2012 22:51 14,9 C 64 % 1020,5 hPa 0,0 l/m 0,0 km/h (0 Bft) S-SO 157 8,2 C 14,9 C
14.06.2012 22:56 14,9 C 64 % 1020,6 hPa 0,0 l/m 0,0 km/h (0 Bft) SO 135 8,2 C 14,9 C
14.06.2012 23:01 14,9 C 64 % 1020,8 hPa 0,0 l/m 0,0 km/h (0 Bft) S 180 8,2 C 14,9 C
14.06.2012 23:06 14,8 C 64 % 1020,7 hPa 0,0 l/m 0,0 km/h (0 Bft) S-SO 157 8,1 C 14,8 C
14.06.2012 23:11 14,8 C 64 % 1020,8 hPa 0,0 l/m 0,0 km/h (0 Bft) S-SO 157 8,1 C 14,8 C
14.06.2012 23:16 14,6 C 64 % 1020,8 hPa 0,0 l/m 0,0 km/h (0 Bft) S-SO 157 7,9 C 14,6 C
14.06.2012 23:21 14,6 C 65 % 1020,7 hPa 0,0 l/m 0,0 km/h (0 Bft) S-SO 157 8,1 C 14,6 C
14.06.2012 23:26 14,5 C 65 % 1021,0 hPa 0,0 l/m 0,0 km/h (0 Bft) S-SO 157 8,0 C 14,5 C
14.06.2012 23:31 14,4 C 65 % 1020,9 hPa 0,0 l/m 0,0 km/h (0 Bft) S-SO 157 7,9 C 14,4 C
14.06.2012 23:36 14,2 C 66 % 1021,0 hPa 0,0 l/m 0,0 km/h (0 Bft) S-SO 157 7,9 C 14,2 C
14.06.2012 23:41 14,1 C 67 % 1021,0 hPa 0,0 l/m 0,0 km/h (0 Bft) S-SW 202 8,1 C 14,1 C
14.06.2012 23:46 14,1 C 67 % 1020,9 hPa 0,0 l/m 0,0 km/h (0 Bft) S-SO 157 8,1 C 14,1 C
14.06.2012 23:51 13,9 C 67 % 1020,9 hPa 0,0 l/m 0,0 km/h (0 Bft) S-SO 157 7,9 C 13,9 C
14.06.2012 23:56 13,9 C 68 % 1021,0 hPa 0,0 l/m 0,0 km/h (0 Bft) S-SO 157 8,1 C 13,9 C
_ Min-Zeit 04:16 15:16 00:06 - 00:06 - - 04:16 04:16
Minimum _ 11,1 C 47 % 1016,9 hPa - 0,0 km/h (0 Bft) - - 6,4 C 11,1 C
_ Max-Zeit 16:46 06:06 23:26 00:01 14:11 - - 08:56 16:46
Maximum _ 19,9 C 76 % 1021,0 hPa 0,0 l/m 21,6 km/h
W-SW (4 Bft)
- - 9,6 C 19,9 C
Durchschnitt _ 15,3 C 62 % 1019,7 hPa #0,0 l/m 3,1 km/h (1 Bft) W - 7,8 C 15,3 C
(c) by David Heller